sensor_id;sensor_type;location;lat;lon;timestamp;temperature;humidity
64796;DHT22;51229;51.980;6.722;2023-05-19T00:01:31;10.20;84.00
64796;DHT22;51229;51.980;6.722;2023-05-19T00:03:58;10.10;84.20
64796;DHT22;51229;51.980;6.722;2023-05-19T00:06:29;10.30;83.80
64796;DHT22;51229;51.980;6.722;2023-05-19T00:09:00;10.30;83.70
64796;DHT22;51229;51.980;6.722;2023-05-19T00:11:26;10.30;83.50
64796;DHT22;51229;51.980;6.722;2023-05-19T00:13:53;10.30;83.80
64796;DHT22;51229;51.980;6.722;2023-05-19T00:16:20;10.30;83.80
64796;DHT22;51229;51.980;6.722;2023-05-19T00:18:46;10.20;83.70
64796;DHT22;51229;51.980;6.722;2023-05-19T00:21:13;10.20;83.80
64796;DHT22;51229;51.980;6.722;2023-05-19T00:23:39;10.20;83.90
64796;DHT22;51229;51.980;6.722;2023-05-19T00:26:04;10.10;84.10
64796;DHT22;51229;51.980;6.722;2023-05-19T00:28:30;10.10;84.10
64796;DHT22;51229;51.980;6.722;2023-05-19T00:30:55;10.00;84.60
64796;DHT22;51229;51.980;6.722;2023-05-19T00:33:21;9.90;84.80
64796;DHT22;51229;51.980;6.722;2023-05-19T00:35:47;9.90;84.80
64796;DHT22;51229;51.980;6.722;2023-05-19T00:38:13;9.80;85.40
64796;DHT22;51229;51.980;6.722;2023-05-19T00:40:38;9.70;85.30
64796;DHT22;51229;51.980;6.722;2023-05-19T00:43:04;9.70;85.50
64796;DHT22;51229;51.980;6.722;2023-05-19T00:45:30;9.70;85.70
64796;DHT22;51229;51.980;6.722;2023-05-19T00:47:56;9.40;88.60
64796;DHT22;51229;51.980;6.722;2023-05-19T00:50:22;9.30;86.80
64796;DHT22;51229;51.980;6.722;2023-05-19T00:52:49;9.40;86.40
64796;DHT22;51229;51.980;6.722;2023-05-19T00:55:15;9.50;86.30
64796;DHT22;51229;51.980;6.722;2023-05-19T00:57:42;9.50;88.90
64796;DHT22;51229;51.980;6.722;2023-05-19T01:00:08;9.20;87.30
64796;DHT22;51229;51.980;6.722;2023-05-19T01:02:35;9.40;87.10
64796;DHT22;51229;51.980;6.722;2023-05-19T01:05:05;9.20;87.50
64796;DHT22;51229;51.980;6.722;2023-05-19T01:07:31;8.90;89.30
64796;DHT22;51229;51.980;6.722;2023-05-19T01:09:57;9.00;88.00
64796;DHT22;51229;51.980;6.722;2023-05-19T01:12:23;9.20;87.90
64796;DHT22;51229;51.980;6.722;2023-05-19T01:14:50;9.30;87.20
64796;DHT22;51229;51.980;6.722;2023-05-19T01:17:42;9.40;86.80
64796;DHT22;51229;51.980;6.722;2023-05-19T01:20:15;9.30;87.00
64796;DHT22;51229;51.980;6.722;2023-05-19T01:26:21;9.00;88.40
64796;DHT22;51229;51.980;6.722;2023-05-19T01:31:40;9.30;87.00
64796;DHT22;51229;51.980;6.722;2023-05-19T01:34:07;9.30;87.00
64796;DHT22;51229;51.980;6.722;2023-05-19T01:36:35;9.10;87.70
64796;DHT22;51229;51.980;6.722;2023-05-19T01:39:01;8.90;88.60
64796;DHT22;51229;51.980;6.722;2023-05-19T01:41:29;8.80;88.60
64796;DHT22;51229;51.980;6.722;2023-05-19T01:43:57;8.90;88.70
64796;DHT22;51229;51.980;6.722;2023-05-19T01:46:24;9.00;87.80
64796;DHT22;51229;51.980;6.722;2023-05-19T01:48:50;9.00;87.70
64796;DHT22;51229;51.980;6.722;2023-05-19T01:51:16;9.10;87.50
64796;DHT22;51229;51.980;6.722;2023-05-19T01:53:42;9.00;87.70
64796;DHT22;51229;51.980;6.722;2023-05-19T01:56:08;8.90;88.10
64796;DHT22;51229;51.980;6.722;2023-05-19T01:58:57;8.90;87.90
64796;DHT22;51229;51.980;6.722;2023-05-19T02:01:47;8.90;88.40
64796;DHT22;51229;51.980;6.722;2023-05-19T02:04:24;8.90;88.50
64796;DHT22;51229;51.980;6.722;2023-05-19T02:07:02;8.90;88.10
64796;DHT22;51229;51.980;6.722;2023-05-19T02:09:33;8.90;88.20
64796;DHT22;51229;51.980;6.722;2023-05-19T02:12:33;8.90;88.30
64796;DHT22;51229;51.980;6.722;2023-05-19T02:15:04;8.90;88.10
64796;DHT22;51229;51.980;6.722;2023-05-19T02:17:34;8.90;88.10
64796;DHT22;51229;51.980;6.722;2023-05-19T02:20:02;8.90;87.90
64796;DHT22;51229;51.980;6.722;2023-05-19T02:22:29;8.80;88.00
64796;DHT22;51229;51.980;6.722;2023-05-19T02:24:55;8.80;88.30
64796;DHT22;51229;51.980;6.722;2023-05-19T02:27:22;8.80;88.30
64796;DHT22;51229;51.980;6.722;2023-05-19T02:29:48;8.70;89.10
64796;DHT22;51229;51.980;6.722;2023-05-19T02:32:14;8.40;89.60
64796;DHT22;51229;51.980;6.722;2023-05-19T02:34:39;8.40;89.60
64796;DHT22;51229;51.980;6.722;2023-05-19T02:37:06;8.40;89.90
64796;DHT22;51229;51.980;6.722;2023-05-19T02:39:32;8.40;89.50
64796;DHT22;51229;51.980;6.722;2023-05-19T02:42:00;8.40;89.40
64796;DHT22;51229;51.980;6.722;2023-05-19T02:44:26;8.30;90.30
64796;DHT22;51229;51.980;6.722;2023-05-19T02:46:51;8.20;92.30
64796;DHT22;51229;51.980;6.722;2023-05-19T02:49:17;7.90;92.80
64796;DHT22;51229;51.980;6.722;2023-05-19T02:51:43;7.90;90.80
64796;DHT22;51229;51.980;6.722;2023-05-19T02:54:09;8.10;90.60
64796;DHT22;51229;51.980;6.722;2023-05-19T02:56:35;8.30;90.30
64796;DHT22;51229;51.980;6.722;2023-05-19T02:59:00;8.20;90.20
64796;DHT22;51229;51.980;6.722;2023-05-19T03:01:26;8.30;90.10
64796;DHT22;51229;51.980;6.722;2023-05-19T03:03:52;8.10;90.30
64796;DHT22;51229;51.980;6.722;2023-05-19T03:06:18;8.10;90.30
64796;DHT22;51229;51.980;6.722;2023-05-19T03:08:43;8.10;90.20
64796;DHT22;51229;51.980;6.722;2023-05-19T03:11:09;8.10;90.30
64796;DHT22;51229;51.980;6.722;2023-05-19T03:13:35;8.00;90.50
64796;DHT22;51229;51.980;6.722;2023-05-19T03:16:01;7.90;90.80
64796;DHT22;51229;51.980;6.722;2023-05-19T03:18:27;7.50;91.50
64796;DHT22;51229;51.980;6.722;2023-05-19T03:20:53;7.70;91.20
64796;DHT22;51229;51.980;6.722;2023-05-19T03:23:21;7.80;91.00
64796;DHT22;51229;51.980;6.722;2023-05-19T03:25:47;7.80;92.00
64796;DHT22;51229;51.980;6.722;2023-05-19T03:28:14;7.70;91.20
64796;DHT22;51229;51.980;6.722;2023-05-19T03:30:39;7.90;90.80
64796;DHT22;51229;51.980;6.722;2023-05-19T03:33:10;7.90;90.70
64796;DHT22;51229;51.980;6.722;2023-05-19T03:35:36;7.90;90.80
64796;DHT22;51229;51.980;6.722;2023-05-19T03:38:02;7.90;90.60
64796;DHT22;51229;51.980;6.722;2023-05-19T03:40:29;7.60;91.60
64796;DHT22;51229;51.980;6.722;2023-05-19T03:43:01;7.30;92.50
64796;DHT22;51229;51.980;6.722;2023-05-19T03:45:29;7.30;92.00
64796;DHT22;51229;51.980;6.722;2023-05-19T03:47:54;7.40;91.80
64796;DHT22;51229;51.980;6.722;2023-05-19T03:50:50;7.40;93.70
64796;DHT22;51229;51.980;6.722;2023-05-19T03:53:21;7.50;91.50
64796;DHT22;51229;51.980;6.722;2023-05-19T03:55:46;7.70;91.10
64796;DHT22;51229;51.980;6.722;2023-05-19T03:58:14;7.80;90.80
64796;DHT22;51229;51.980;6.722;2023-05-19T04:00:40;7.70;91.00
64796;DHT22;51229;51.980;6.722;2023-05-19T04:03:06;7.60;91.70
64796;DHT22;51229;51.980;6.722;2023-05-19T04:05:33;7.10;93.40
64796;DHT22;51229;51.980;6.722;2023-05-19T04:07:59;7.00;94.00
64796;DHT22;51229;51.980;6.722;2023-05-19T04:10:24;6.70;94.90
64796;DHT22;51229;51.980;6.722;2023-05-19T04:12:50;6.50;94.80
64796;DHT22;51229;51.980;6.722;2023-05-19T04:15:16;6.80;94.00
64796;DHT22;51229;51.980;6.722;2023-05-19T04:17:42;6.90;94.50
64796;DHT22;51229;51.980;6.722;2023-05-19T04:20:08;7.30;92.40
64796;DHT22;51229;51.980;6.722;2023-05-19T04:22:34;7.50;92.10
64796;DHT22;51229;51.980;6.722;2023-05-19T04:24:59;7.60;92.40
64796;DHT22;51229;51.980;6.722;2023-05-19T04:27:26;6.90;94.10
64796;DHT22;51229;51.980;6.722;2023-05-19T04:29:53;6.90;94.00
64796;DHT22;51229;51.980;6.722;2023-05-19T04:32:19;6.90;95.10
64796;DHT22;51229;51.980;6.722;2023-05-19T04:34:45;6.70;97.60
64796;DHT22;51229;51.980;6.722;2023-05-19T04:37:15;7.00;95.90
64796;DHT22;51229;51.980;6.722;2023-05-19T04:39:41;7.00;93.80
64796;DHT22;51229;51.980;6.722;2023-05-19T04:42:09;7.30;93.10
64796;DHT22;51229;51.980;6.722;2023-05-19T04:44:37;7.10;97.00
64796;DHT22;51229;51.980;6.722;2023-05-19T04:47:07;6.20;99.90
64796;DHT22;51229;51.980;6.722;2023-05-19T04:49:36;6.40;99.90
64796;DHT22;51229;51.980;6.722;2023-05-19T04:52:09;6.60;99.00
64796;DHT22;51229;51.980;6.722;2023-05-19T04:54:36;6.90;97.30
64796;DHT22;51229;51.980;6.722;2023-05-19T04:57:03;6.60;97.60
64796;DHT22;51229;51.980;6.722;2023-05-19T04:59:31;7.40;95.00
64796;DHT22;51229;51.980;6.722;2023-05-19T05:01:57;7.60;95.80
64796;DHT22;51229;51.980;6.722;2023-05-19T05:04:25;7.40;94.50
64796;DHT22;51229;51.980;6.722;2023-05-19T05:06:50;7.20;99.80
64796;DHT22;51229;51.980;6.722;2023-05-19T05:09:17;7.10;95.60
64796;DHT22;51229;51.980;6.722;2023-05-19T05:11:44;6.90;97.90
64796;DHT22;51229;51.980;6.722;2023-05-19T05:14:10;7.30;96.10
64796;DHT22;51229;51.980;6.722;2023-05-19T05:16:36;7.40;95.60
64796;DHT22;51229;51.980;6.722;2023-05-19T05:19:03;7.10;98.60
64796;DHT22;51229;51.980;6.722;2023-05-19T05:21:29;7.50;99.10
64796;DHT22;51229;51.980;6.722;2023-05-19T05:23:58;7.10;98.90
64796;DHT22;51229;51.980;6.722;2023-05-19T05:26:29;7.00;99.90
64796;DHT22;51229;51.980;6.722;2023-05-19T05:28:56;6.90;99.90
64796;DHT22;51229;51.980;6.722;2023-05-19T05:31:21;6.90;99.90
64796;DHT22;51229;51.980;6.722;2023-05-19T05:33:47;7.20;99.90
64796;DHT22;51229;51.980;6.722;2023-05-19T05:36:14;7.30;99.20
64796;DHT22;51229;51.980;6.722;2023-05-19T05:38:40;7.50;99.10
64796;DHT22;51229;51.980;6.722;2023-05-19T05:41:06;7.80;98.50
64796;DHT22;51229;51.980;6.722;2023-05-19T05:43:33;7.90;98.40
64796;DHT22;51229;51.980;6.722;2023-05-19T05:46:02;8.00;99.00
64796;DHT22;51229;51.980;6.722;2023-05-19T05:48:28;8.20;95.90
64796;DHT22;51229;51.980;6.722;2023-05-19T05:50:55;7.90;99.00
64796;DHT22;51229;51.980;6.722;2023-05-19T05:53:25;7.80;99.90
64796;DHT22;51229;51.980;6.722;2023-05-19T05:55:54;7.80;98.90
64796;DHT22;51229;51.980;6.722;2023-05-19T05:58:24;7.70;99.90
64796;DHT22;51229;51.980;6.722;2023-05-19T06:00:50;7.90;99.90
64796;DHT22;51229;51.980;6.722;2023-05-19T06:03:17;7.90;99.90
64796;DHT22;51229;51.980;6.722;2023-05-19T06:05:49;8.30;98.00
64796;DHT22;51229;51.980;6.722;2023-05-19T06:08:15;8.40;99.90
64796;DHT22;51229;51.980;6.722;2023-05-19T06:10:42;8.20;99.90
64796;DHT22;51229;51.980;6.722;2023-05-19T06:13:09;8.40;99.20
64796;DHT22;51229;51.980;6.722;2023-05-19T06:15:37;8.50;98.40
64796;DHT22;51229;51.980;6.722;2023-05-19T06:18:08;8.90;99.50
64796;DHT22;51229;51.980;6.722;2023-05-19T06:20:34;8.90;97.10
64796;DHT22;51229;51.980;6.722;2023-05-19T06:23:01;9.10;98.00
64796;DHT22;51229;51.980;6.722;2023-05-19T06:25:27;9.30;96.30
64796;DHT22;51229;51.980;6.722;2023-05-19T06:27:54;9.50;97.90
64796;DHT22;51229;51.980;6.722;2023-05-19T06:30:21;9.60;95.70
64796;DHT22;51229;51.980;6.722;2023-05-19T06:33:04;9.70;97.40
64796;DHT22;51229;51.980;6.722;2023-05-19T06:35:30;10.00;94.70
64796;DHT22;51229;51.980;6.722;2023-05-19T06:37:57;10.30;95.90
64796;DHT22;51229;51.980;6.722;2023-05-19T06:40:22;10.60;96.00
64796;DHT22;51229;51.980;6.722;2023-05-19T06:42:48;10.70;95.20
64796;DHT22;51229;51.980;6.722;2023-05-19T06:45:20;10.30;94.50
64796;DHT22;51229;51.980;6.722;2023-05-19T06:47:48;10.20;94.60
64796;DHT22;51229;51.980;6.722;2023-05-19T06:50:15;10.50;94.40
64796;DHT22;51229;51.980;6.722;2023-05-19T06:52:41;10.80;93.80
64796;DHT22;51229;51.980;6.722;2023-05-19T06:55:08;11.20;93.00
64796;DHT22;51229;51.980;6.722;2023-05-19T06:57:36;11.30;92.30
64796;DHT22;51229;51.980;6.722;2023-05-19T07:00:03;11.50;92.40
64796;DHT22;51229;51.980;6.722;2023-05-19T07:02:30;11.60;92.10
64796;DHT22;51229;51.980;6.722;2023-05-19T07:04:56;11.90;91.70
64796;DHT22;51229;51.980;6.722;2023-05-19T07:07:22;12.20;91.30
64796;DHT22;51229;51.980;6.722;2023-05-19T07:09:49;12.50;90.40
64796;DHT22;51229;51.980;6.722;2023-05-19T07:12:14;12.60;90.00
64796;DHT22;51229;51.980;6.722;2023-05-19T07:14:40;12.60;89.10
64796;DHT22;51229;51.980;6.722;2023-05-19T07:17:06;12.70;87.80
64796;DHT22;51229;51.980;6.722;2023-05-19T07:19:35;12.80;88.60
64796;DHT22;51229;51.980;6.722;2023-05-19T07:22:01;12.80;88.00
64796;DHT22;51229;51.980;6.722;2023-05-19T07:24:27;12.60;89.30
64796;DHT22;51229;51.980;6.722;2023-05-19T07:26:52;12.70;88.60
64796;DHT22;51229;51.980;6.722;2023-05-19T07:29:18;13.40;87.00
64796;DHT22;51229;51.980;6.722;2023-05-19T07:31:44;13.70;84.90
64796;DHT22;51229;51.980;6.722;2023-05-19T07:34:10;13.30;85.00
64796;DHT22;51229;51.980;6.722;2023-05-19T07:36:36;13.90;83.90
64796;DHT22;51229;51.980;6.722;2023-05-19T07:39:01;13.90;84.10
64796;DHT22;51229;51.980;6.722;2023-05-19T07:41:27;14.10;87.30
64796;DHT22;51229;51.980;6.722;2023-05-19T07:43:53;14.60;83.40
64796;DHT22;51229;51.980;6.722;2023-05-19T07:46:19;14.70;81.90
64796;DHT22;51229;51.980;6.722;2023-05-19T07:48:44;14.50;84.20
64796;DHT22;51229;51.980;6.722;2023-05-19T07:51:11;14.90;83.30
64796;DHT22;51229;51.980;6.722;2023-05-19T07:53:37;15.00;86.40
64796;DHT22;51229;51.980;6.722;2023-05-19T07:56:03;15.80;82.40
64796;DHT22;51229;51.980;6.722;2023-05-19T07:58:29;15.90;82.20
64796;DHT22;51229;51.980;6.722;2023-05-19T08:00:57;15.80;78.80
64796;DHT22;51229;51.980;6.722;2023-05-19T08:03:24;15.70;81.30
64796;DHT22;51229;51.980;6.722;2023-05-19T08:05:50;15.50;83.60
64796;DHT22;51229;51.980;6.722;2023-05-19T08:08:16;16.00;79.30
64796;DHT22;51229;51.980;6.722;2023-05-19T08:10:44;16.50;76.10
64796;DHT22;51229;51.980;6.722;2023-05-19T08:13:10;16.80;82.30
64796;DHT22;51229;51.980;6.722;2023-05-19T08:15:35;17.10;75.10
64796;DHT22;51229;51.980;6.722;2023-05-19T08:18:01;16.70;73.10
64796;DHT22;51229;51.980;6.722;2023-05-19T08:20:27;16.60;73.40
64796;DHT22;51229;51.980;6.722;2023-05-19T08:22:53;16.40;80.20
64796;DHT22;51229;51.980;6.722;2023-05-19T08:25:18;16.90;73.20
64796;DHT22;51229;51.980;6.722;2023-05-19T08:27:44;17.00;83.10
64796;DHT22;51229;51.980;6.722;2023-05-19T08:30:10;18.00;80.90
64796;DHT22;51229;51.980;6.722;2023-05-19T08:32:36;18.00;71.50
64796;DHT22;51229;51.980;6.722;2023-05-19T08:35:02;18.10;75.90
64796;DHT22;51229;51.980;6.722;2023-05-19T08:37:28;17.70;75.10
64796;DHT22;51229;51.980;6.722;2023-05-19T08:39:54;17.60;77.50
64796;DHT22;51229;51.980;6.722;2023-05-19T08:42:20;17.80;72.00
64796;DHT22;51229;51.980;6.722;2023-05-19T08:44:45;17.40;80.80
64796;DHT22;51229;51.980;6.722;2023-05-19T08:47:11;18.30;73.30
64796;DHT22;51229;51.980;6.722;2023-05-19T08:49:45;18.00;81.80
64796;DHT22;51229;51.980;6.722;2023-05-19T08:54:56;19.40;79.20
64796;DHT22;51229;51.980;6.722;2023-05-19T08:57:25;18.50;68.80
64796;DHT22;51229;51.980;6.722;2023-05-19T08:59:53;18.60;67.70
64796;DHT22;51229;51.980;6.722;2023-05-19T09:02:19;19.40;69.00
64796;DHT22;51229;51.980;6.722;2023-05-19T09:04:46;19.80;69.40
64796;DHT22;51229;51.980;6.722;2023-05-19T09:07:13;20.10;67.50
64796;DHT22;51229;51.980;6.722;2023-05-19T09:09:40;19.10;68.20
64796;DHT22;51229;51.980;6.722;2023-05-19T09:12:09;19.10;67.00
64796;DHT22;51229;51.980;6.722;2023-05-19T09:14:37;19.50;74.40
64796;DHT22;51229;51.980;6.722;2023-05-19T09:17:03;20.00;68.70
64796;DHT22;51229;51.980;6.722;2023-05-19T09:19:29;19.90;72.30
64796;DHT22;51229;51.980;6.722;2023-05-19T09:21:59;19.20;69.10
64796;DHT22;51229;51.980;6.722;2023-05-19T09:24:26;20.20;67.30
64796;DHT22;51229;51.980;6.722;2023-05-19T09:26:54;20.80;64.40
64796;DHT22;51229;51.980;6.722;2023-05-19T09:29:21;21.00;76.80
64796;DHT22;51229;51.980;6.722;2023-05-19T09:31:52;20.90;71.20
64796;DHT22;51229;51.980;6.722;2023-05-19T09:34:19;21.30;71.50
64796;DHT22;51229;51.980;6.722;2023-05-19T09:36:49;20.50;64.70
64796;DHT22;51229;51.980;6.722;2023-05-19T09:39:17;20.30;74.80
64796;DHT22;51229;51.980;6.722;2023-05-19T09:41:44;20.00;71.50
64796;DHT22;51229;51.980;6.722;2023-05-19T09:44:20;20.50;68.80
64796;DHT22;51229;51.980;6.722;2023-05-19T09:46:51;20.30;72.80
64796;DHT22;51229;51.980;6.722;2023-05-19T09:49:25;21.10;72.40
64796;DHT22;51229;51.980;6.722;2023-05-19T09:51:55;21.80;75.10
64796;DHT22;51229;51.980;6.722;2023-05-19T09:54:21;21.40;69.30
64796;DHT22;51229;51.980;6.722;2023-05-19T09:56:58;22.30;66.60
64796;DHT22;51229;51.980;6.722;2023-05-19T09:59:25;22.30;62.90
64796;DHT22;51229;51.980;6.722;2023-05-19T10:01:55;21.70;73.30
64796;DHT22;51229;51.980;6.722;2023-05-19T10:04:23;22.60;58.80
64796;DHT22;51229;51.980;6.722;2023-05-19T10:06:49;20.10;65.20
64796;DHT22;51229;51.980;6.722;2023-05-19T10:09:22;21.90;60.80
64796;DHT22;51229;51.980;6.722;2023-05-19T10:11:51;21.90;59.20
64796;DHT22;51229;51.980;6.722;2023-05-19T10:14:21;21.00;60.00
64796;DHT22;51229;51.980;6.722;2023-05-19T10:16:50;21.30;69.70
64796;DHT22;51229;51.980;6.722;2023-05-19T10:19:20;21.20;63.30
64796;DHT22;51229;51.980;6.722;2023-05-19T10:21:50;20.30;67.10
64796;DHT22;51229;51.980;6.722;2023-05-19T10:24:17;21.80;63.30
64796;DHT22;51229;51.980;6.722;2023-05-19T10:26:52;22.30;70.80
64796;DHT22;51229;51.980;6.722;2023-05-19T10:29:24;23.10;57.80
64796;DHT22;51229;51.980;6.722;2023-05-19T10:31:52;22.50;71.00
64796;DHT22;51229;51.980;6.722;2023-05-19T10:37:40;24.10;72.70
64796;DHT22;51229;51.980;6.722;2023-05-19T10:40:20;23.60;68.20
64796;DHT22;51229;51.980;6.722;2023-05-19T10:43:12;23.60;67.20
64796;DHT22;51229;51.980;6.722;2023-05-19T10:45:48;22.80;66.80
64796;DHT22;51229;51.980;6.722;2023-05-19T10:48:16;22.10;58.30
64796;DHT22;51229;51.980;6.722;2023-05-19T10:50:45;21.30;65.00
64796;DHT22;51229;51.980;6.722;2023-05-19T10:53:17;22.50;61.00
64796;DHT22;51229;51.980;6.722;2023-05-19T10:55:51;22.80;71.70
64796;DHT22;51229;51.980;6.722;2023-05-19T11:01:13;23.00;58.10
64796;DHT22;51229;51.980;6.722;2023-05-19T11:03:50;22.60;58.20
64796;DHT22;51229;51.980;6.722;2023-05-19T11:06:27;21.60;74.60
64796;DHT22;51229;51.980;6.722;2023-05-19T11:08:57;23.70;58.70
64796;DHT22;51229;51.980;6.722;2023-05-19T11:11:25;22.90;57.80
64796;DHT22;51229;51.980;6.722;2023-05-19T11:13:54;23.50;65.00
64796;DHT22;51229;51.980;6.722;2023-05-19T11:16:33;23.60;59.40
64796;DHT22;51229;51.980;6.722;2023-05-19T11:18:59;24.50;60.40
64796;DHT22;51229;51.980;6.722;2023-05-19T11:22:12;24.90;63.40
64796;DHT22;51229;51.980;6.722;2023-05-19T11:24:43;26.10;59.20
64796;DHT22;51229;51.980;6.722;2023-05-19T11:27:31;24.40;59.70
64796;DHT22;51229;51.980;6.722;2023-05-19T11:29:59;23.50;66.10
64796;DHT22;51229;51.980;6.722;2023-05-19T11:32:30;23.80;55.90
64796;DHT22;51229;51.980;6.722;2023-05-19T11:34:58;24.20;63.70
64796;DHT22;51229;51.980;6.722;2023-05-19T11:37:25;22.50;56.10
64796;DHT22;51229;51.980;6.722;2023-05-19T11:39:51;22.10;61.50
64796;DHT22;51229;51.980;6.722;2023-05-19T11:42:17;24.10;62.40
64796;DHT22;51229;51.980;6.722;2023-05-19T11:44:44;25.90;61.80
64796;DHT22;51229;51.980;6.722;2023-05-19T11:47:13;25.00;58.50
64796;DHT22;51229;51.980;6.722;2023-05-19T11:49:43;23.80;57.30
64796;DHT22;51229;51.980;6.722;2023-05-19T11:52:10;23.70;55.90
64796;DHT22;51229;51.980;6.722;2023-05-19T11:54:36;23.00;56.10
64796;DHT22;51229;51.980;6.722;2023-05-19T11:57:03;23.40;55.00
64796;DHT22;51229;51.980;6.722;2023-05-19T12:01:57;25.00;59.70
64796;DHT22;51229;51.980;6.722;2023-05-19T12:04:22;24.30;57.80
64796;DHT22;51229;51.980;6.722;2023-05-19T12:06:48;23.40;58.90
64796;DHT22;51229;51.980;6.722;2023-05-19T12:09:14;23.40;56.30
64796;DHT22;51229;51.980;6.722;2023-05-19T12:11:40;23.40;59.70
64796;DHT22;51229;51.980;6.722;2023-05-19T12:14:06;24.20;60.90
64796;DHT22;51229;51.980;6.722;2023-05-19T12:16:35;23.80;54.50
64796;DHT22;51229;51.980;6.722;2023-05-19T12:19:04;23.20;55.70
64796;DHT22;51229;51.980;6.722;2023-05-19T12:21:30;24.20;53.80
64796;DHT22;51229;51.980;6.722;2023-05-19T12:23:57;23.50;56.50
64796;DHT22;51229;51.980;6.722;2023-05-19T12:26:22;23.50;56.80
64796;DHT22;51229;51.980;6.722;2023-05-19T12:28:49;23.70;54.50
64796;DHT22;51229;51.980;6.722;2023-05-19T12:31:16;25.20;60.90
64796;DHT22;51229;51.980;6.722;2023-05-19T12:33:42;25.10;57.30
64796;DHT22;51229;51.980;6.722;2023-05-19T12:36:09;23.90;54.30
64796;DHT22;51229;51.980;6.722;2023-05-19T12:38:35;23.90;66.00
64796;DHT22;51229;51.980;6.722;2023-05-19T12:41:05;24.20;65.10
64796;DHT22;51229;51.980;6.722;2023-05-19T12:43:31;25.30;62.40
64796;DHT22;51229;51.980;6.722;2023-05-19T12:45:57;25.70;61.60
64796;DHT22;51229;51.980;6.722;2023-05-19T12:48:23;23.90;52.80
64796;DHT22;51229;51.980;6.722;2023-05-19T12:50:51;23.20;56.20
64796;DHT22;51229;51.980;6.722;2023-05-19T12:53:18;23.10;63.70
64796;DHT22;51229;51.980;6.722;2023-05-19T12:55:44;23.20;60.10
64796;DHT22;51229;51.980;6.722;2023-05-19T12:58:10;21.80;56.80
64796;DHT22;51229;51.980;6.722;2023-05-19T13:00:44;22.40;64.50
64796;DHT22;51229;51.980;6.722;2023-05-19T13:03:16;22.80;67.00
64796;DHT22;51229;51.980;6.722;2023-05-19T13:05:44;24.90;55.70
64796;DHT22;51229;51.980;6.722;2023-05-19T13:08:18;24.50;55.60
64796;DHT22;51229;51.980;6.722;2023-05-19T13:10:45;24.40;65.50
64796;DHT22;51229;51.980;6.722;2023-05-19T13:13:11;24.00;66.20
64796;DHT22;51229;51.980;6.722;2023-05-19T13:15:40;25.50;65.30
64796;DHT22;51229;51.980;6.722;2023-05-19T13:18:07;24.50;57.30
64796;DHT22;51229;51.980;6.722;2023-05-19T13:20:35;25.60;61.00
64796;DHT22;51229;51.980;6.722;2023-05-19T13:23:02;25.40;62.50
64796;DHT22;51229;51.980;6.722;2023-05-19T13:25:28;24.30;65.90
64796;DHT22;51229;51.980;6.722;2023-05-19T13:27:53;25.00;53.30
64796;DHT22;51229;51.980;6.722;2023-05-19T13:30:20;22.40;54.30
64796;DHT22;51229;51.980;6.722;2023-05-19T13:32:46;22.50;59.40
64796;DHT22;51229;51.980;6.722;2023-05-19T13:35:15;23.30;56.00
64796;DHT22;51229;51.980;6.722;2023-05-19T13:37:41;23.00;58.50
64796;DHT22;51229;51.980;6.722;2023-05-19T13:40:07;23.50;57.50
64796;DHT22;51229;51.980;6.722;2023-05-19T13:42:34;24.50;56.60
64796;DHT22;51229;51.980;6.722;2023-05-19T13:45:00;24.90;62.50
64796;DHT22;51229;51.980;6.722;2023-05-19T13:47:26;26.20;55.10
64796;DHT22;51229;51.980;6.722;2023-05-19T13:49:52;23.40;58.40
64796;DHT22;51229;51.980;6.722;2023-05-19T13:52:21;23.90;58.10
64796;DHT22;51229;51.980;6.722;2023-05-19T13:54:47;22.50;55.30
64796;DHT22;51229;51.980;6.722;2023-05-19T13:57:14;22.40;60.20
64796;DHT22;51229;51.980;6.722;2023-05-19T13:59:40;24.10;58.50
64796;DHT22;51229;51.980;6.722;2023-05-19T14:02:07;24.50;62.70
64796;DHT22;51229;51.980;6.722;2023-05-19T14:04:35;24.40;52.80
64796;DHT22;51229;51.980;6.722;2023-05-19T14:07:02;24.70;58.80
64796;DHT22;51229;51.980;6.722;2023-05-19T14:09:28;23.80;58.80
64796;DHT22;51229;51.980;6.722;2023-05-19T14:11:53;23.30;65.50
64796;DHT22;51229;51.980;6.722;2023-05-19T14:14:19;22.80;52.20
64796;DHT22;51229;51.980;6.722;2023-05-19T14:16:44;22.90;55.80
64796;DHT22;51229;51.980;6.722;2023-05-19T14:19:10;23.10;54.40
64796;DHT22;51229;51.980;6.722;2023-05-19T14:21:36;23.20;62.00
64796;DHT22;51229;51.980;6.722;2023-05-19T14:24:02;23.50;59.60
64796;DHT22;51229;51.980;6.722;2023-05-19T14:26:28;22.40;58.00
64796;DHT22;51229;51.980;6.722;2023-05-19T14:28:53;22.20;56.40
64796;DHT22;51229;51.980;6.722;2023-05-19T14:31:21;22.10;54.90
64796;DHT22;51229;51.980;6.722;2023-05-19T14:33:47;21.00;55.10
64796;DHT22;51229;51.980;6.722;2023-05-19T14:36:13;20.40;68.40
64796;DHT22;51229;51.980;6.722;2023-05-19T14:38:38;20.80;67.70
64796;DHT22;51229;51.980;6.722;2023-05-19T14:41:05;22.70;58.40
64796;DHT22;51229;51.980;6.722;2023-05-19T14:43:31;21.60;65.40
64796;DHT22;51229;51.980;6.722;2023-05-19T14:45:56;22.40;55.10
64796;DHT22;51229;51.980;6.722;2023-05-19T14:48:22;21.10;57.50
64796;DHT22;51229;51.980;6.722;2023-05-19T14:50:48;20.30;64.70
64796;DHT22;51229;51.980;6.722;2023-05-19T14:53:13;20.70;56.60
64796;DHT22;51229;51.980;6.722;2023-05-19T14:55:39;20.60;57.80
64796;DHT22;51229;51.980;6.722;2023-05-19T14:58:05;21.30;66.30
64796;DHT22;51229;51.980;6.722;2023-05-19T15:00:30;20.90;64.30
64796;DHT22;51229;51.980;6.722;2023-05-19T15:02:56;20.50;56.40
64796;DHT22;51229;51.980;6.722;2023-05-19T15:05:22;20.70;60.30
64796;DHT22;51229;51.980;6.722;2023-05-19T15:07:49;20.90;67.30
64796;DHT22;51229;51.980;6.722;2023-05-19T15:10:15;21.60;68.50
64796;DHT22;51229;51.980;6.722;2023-05-19T15:12:41;21.00;62.90
64796;DHT22;51229;51.980;6.722;2023-05-19T15:15:07;20.00;62.40
64796;DHT22;51229;51.980;6.722;2023-05-19T15:17:33;19.90;61.60
64796;DHT22;51229;51.980;6.722;2023-05-19T15:19:58;19.50;58.00
64796;DHT22;51229;51.980;6.722;2023-05-19T15:22:25;20.10;71.00
64796;DHT22;51229;51.980;6.722;2023-05-19T15:24:50;20.30;69.00
64796;DHT22;51229;51.980;6.722;2023-05-19T15:27:16;20.80;64.50
64796;DHT22;51229;51.980;6.722;2023-05-19T15:29:42;21.20;66.00
64796;DHT22;51229;51.980;6.722;2023-05-19T15:32:08;21.00;57.70
64796;DHT22;51229;51.980;6.722;2023-05-19T15:34:33;19.90;58.40
64796;DHT22;51229;51.980;6.722;2023-05-19T15:36:59;19.70;59.60
64796;DHT22;51229;51.980;6.722;2023-05-19T15:39:25;20.30;66.30
64796;DHT22;51229;51.980;6.722;2023-05-19T15:41:51;20.20;62.40
64796;DHT22;51229;51.980;6.722;2023-05-19T15:44:16;19.90;63.30
64796;DHT22;51229;51.980;6.722;2023-05-19T15:46:42;19.80;70.50
64796;DHT22;51229;51.980;6.722;2023-05-19T15:49:08;20.10;66.80
64796;DHT22;51229;51.980;6.722;2023-05-19T15:51:34;20.40;69.50
64796;DHT22;51229;51.980;6.722;2023-05-19T15:54:00;19.40;64.00
64796;DHT22;51229;51.980;6.722;2023-05-19T15:56:25;18.90;64.30
64796;DHT22;51229;51.980;6.722;2023-05-19T15:58:51;20.10;69.60